Terminal Aerodrome Forecast
Issued by NWS

Home | Current Version | Previous Version | Text Only | Print | Product List | Glossary On
Versions: 1 2 3 4 5 6 7 8 9 10 11 12 13 14 15
695
FTUS45 KABQ 292150 AAA
TAFGUP
TAF AMD
KGUP 292150Z 2922/3018 22006KT P6SM VCTS BKN070CB OVC100
      TEMPO 2922/2924 VRB15G25KT 3SM -TSRA BR BKN060CB
     FM300000 VRB05KT P6SM VCSH BKN060
     FM300900 VRB03KT P6SM SCT050=

USA.gov is the U.S. government's official web portal to all federal, state and local government web resources and services.